Grand Saline, Texas
Current Conditions -  °F | °C
As of 1:35 AM on Sunday 23 Nov 2014 (Local Time) from KJDD Reporting Station
Broken Clouds Broken Clouds  
Wind Chill: 61°   Ceiling: 500
Heat Index: 61°   Visibility: 10mi
Dew Point: 61°   Wind: 0mph
Humidity: 100%   Direction: NA
Pressure: 29.63"   Gusts: NA
Location:  32.67°N, 95.71°W
Report Text: KJDD 230735Z AUTO 00000KT 10SM BKN005 16/16 A2963 RMK AO2
Loading
Personal Weather Stations






























Interactive Weather Map New forecast layout! Learn more

10-Day Weather Forecast

Advertisements
Track Severe Weather on mobile